Enter the Airport ICAO Code

Search by Airport or City

Current Weather

LEZG | Zaragoza Airport

Zaragoza, Aragon, Spain

Last Update 25 Minutes Ago

Sky with Few Clouds

Temperature of 12 ēC

Moderate to Strong Winds from West

Temperature

12 ēC

Dew Point Temperature

03 ēC

Relative Humidity

54.17 %

Wind Direction

West (290ē, Without Significant Variations)

Wind Velocity

35 km/h (19 kt)

Gusts

None

Visibility

Greater than 10 Kilometers

Sea Level Pressure

1019 hPa (Hectopascals)

Layers of Clouds

5% to 30% of Sky Covered from 914 mts (3000 ft) Above Ground Level.

METAR LEZG 091100Z 29019KT 9999 FEW030 12/03 Q1019

Weather Forecast

LEZG | Zaragoza Airport

Zaragoza, Aragon, Spain

Forecast valid for the next 19 Hours

From now on it is expected:

Sky with Few Clouds

Moderate to Strong Winds from NorthWest

From now on it is expected 7 hours with intermittent periods of:

Moderate to Strong Winds from NorthWest with Gusts

Maximum Temperature

15 ēC in 3 Hours

Minimum Temperature

05 ēC in -5 Hours

TAF LEZG 090500Z 0906/1006 31017KT 9999 FEW030 TX15/0914Z TN05/0906Z TEMPO 0908/0918 31020G30KT